createdAt,value
2022-12-18T00:04:32.903Z,97.22
2022-12-18T00:09:40.325Z,97.08
2022-12-18T00:14:45.129Z,97.13
2022-12-18T00:19:46.900Z,97.32
2022-12-18T00:24:49.438Z,97.02
2022-12-18T00:29:51.309Z,96.96
2022-12-18T00:34:53.208Z,97.01
2022-12-18T00:39:55.043Z,96.87
2022-12-18T00:44:56.814Z,97.01
2022-12-18T00:49:58.724Z,96.56
2022-12-18T00:55:05.862Z,96.61
2022-12-18T01:00:11.945Z,96.95
2022-12-18T01:05:14.916Z,97.09
2022-12-18T01:10:16.797Z,96.47
2022-12-18T01:15:19.957Z,96.35
2022-12-18T01:20:21.854Z,96.36
2022-12-18T01:25:23.643Z,96.59
2022-12-18T01:30:26.470Z,96.23
2022-12-18T01:35:28.537Z,96.27
2022-12-18T01:40:30.334Z,96.54
2022-12-18T01:45:33.229Z,96.36
2022-12-18T01:50:39.549Z,96.04
2022-12-18T01:55:46.461Z,96.20
2022-12-18T02:00:48.463Z,96.20
2022-12-18T02:06:12.976Z,96.35
2022-12-18T02:11:19.877Z,96.35
2022-12-18T02:16:47.944Z,95.92
2022-12-18T02:22:03.456Z,96.30
2022-12-18T02:27:10.147Z,96.70
2022-12-18T02:32:18.669Z,96.49
2022-12-18T02:37:22.588Z,96.53
2022-12-18T02:42:25.451Z,96.62
2022-12-18T02:47:32.365Z,95.97
2022-12-18T02:52:56.205Z,96.12
2022-12-18T02:58:33.654Z,96.06
2022-12-18T03:03:48.634Z,95.66
2022-12-18T03:08:55.179Z,95.82
2022-12-18T03:14:00.399Z,96.45
2022-12-18T03:19:17.045Z,96.29
2022-12-18T03:24:21.349Z,95.51
2022-12-18T03:29:37.049Z,95.73
2022-12-18T03:34:43.781Z,96.04
2022-12-18T03:39:47.712Z,95.67
2022-12-18T03:45:11.195Z,96.01
2022-12-18T03:50:28.342Z,96.72
2022-12-18T03:55:35.656Z,96.55
2022-12-18T04:00:40.166Z,96.25
2022-12-18T04:05:45.082Z,96.49
2022-12-18T04:10:47.742Z,95.89
2022-12-18T04:15:49.715Z,96.07
2022-12-18T04:20:52.823Z,96.38
2022-12-18T04:25:55.234Z,96.19
2022-12-18T04:31:09.433Z,96.48
2022-12-18T04:36:13.372Z,96.36
2022-12-18T04:41:15.728Z,96.51
2022-12-18T04:46:18.756Z,96.43
2022-12-18T04:51:26.121Z,96.06
2022-12-18T04:56:28.552Z,96.13
2022-12-18T05:01:34.553Z,96.37
2022-12-18T05:06:37.128Z,96.39
2022-12-18T05:11:38.964Z,96.39
2022-12-18T05:16:40.910Z,96.23
2022-12-18T05:21:42.682Z,95.69
2022-12-18T05:26:44.610Z,95.91
2022-12-18T05:31:46.394Z,96.30
2022-12-18T05:36:48.195Z,96.00
2022-12-18T05:41:50.105Z,96.06
2022-12-18T05:46:52.038Z,96.12
2022-12-18T05:51:53.925Z,95.72
2022-12-18T05:56:55.851Z,95.69
2022-12-18T06:01:57.732Z,96.23
2022-12-18T06:06:59.663Z,95.90
2022-12-18T06:12:01.559Z,95.71
2022-12-18T06:17:03.398Z,95.95
2022-12-18T06:22:05.215Z,95.88
2022-12-18T06:27:07.055Z,96.06
2022-12-18T06:32:09.520Z,95.87
2022-12-18T06:37:11.417Z,95.96
2022-12-18T06:42:13.532Z,96.19
2022-12-18T06:47:15.505Z,96.03
2022-12-18T06:52:17.430Z,96.28
2022-12-18T06:57:19.244Z,96.30
2022-12-18T07:02:21.172Z,96.35
2022-12-18T07:07:23.263Z,96.34
2022-12-18T07:12:25.159Z,96.39
2022-12-18T07:17:27.377Z,96.01
2022-12-18T07:22:29.159Z,95.84
2022-12-18T07:27:30.980Z,95.87
2022-12-18T07:32:32.952Z,96.08
2022-12-18T07:37:34.852Z,96.23
2022-12-18T07:42:37.943Z,96.27
2022-12-18T07:47:42.207Z,96.08
2022-12-18T07:52:43.959Z,95.75
2022-12-18T07:57:51.278Z,95.84
2022-12-18T08:02:54.643Z,94.91
2022-12-18T08:07:57.265Z,94.82
2022-12-18T08:13:04.667Z,96.12
2022-12-18T08:18:11.337Z,95.95
2022-12-18T08:23:15.833Z,94.88
2022-12-18T08:28:18.215Z,94.63
2022-12-18T08:33:20.123Z,94.82
2022-12-18T08:38:22.084Z,94.47
2022-12-18T08:43:42.939Z,94.78
2022-12-18T08:48:45.153Z,94.51
2022-12-18T08:53:47.343Z,94.04
2022-12-18T08:58:53.128Z,93.75
2022-12-18T09:03:55.003Z,92.81
2022-12-18T09:08:58.412Z,93.75
2022-12-18T09:14:01.888Z,94.06
2022-12-18T09:19:05.478Z,93.51
2022-12-18T09:24:08.514Z,93.43
2022-12-18T09:29:11.099Z,93.47
2022-12-18T09:34:13.300Z,93.38
2022-12-18T09:39:15.313Z,92.98
2022-12-18T09:44:44.462Z,92.18
2022-12-18T09:49:51.174Z,92.71
2022-12-18T09:55:00.300Z,93.00
2022-12-18T10:00:22.819Z,92.63
2022-12-18T10:05:44.820Z,92.40
2022-12-18T10:11:11.887Z,92.35
2022-12-18T10:16:42.943Z,91.81
2022-12-18T10:22:14.211Z,91.20
2022-12-18T10:27:22.992Z,90.90
2022-12-18T10:32:27.869Z,90.38
2022-12-18T10:37:31.020Z,90.45
2022-12-18T10:42:32.819Z,90.29
2022-12-18T10:47:35.513Z,90.28
2022-12-18T10:52:40.807Z,90.04
2022-12-18T10:57:45.376Z,89.63
2022-12-18T11:02:47.451Z,88.83
2022-12-18T11:07:51.589Z,88.88
2022-12-18T11:12:53.404Z,88.54
2022-12-18T11:17:55.346Z,88.77
2022-12-18T11:23:06.613Z,88.71
2022-12-18T11:28:30.294Z,88.70
2022-12-18T11:33:32.149Z,88.54
2022-12-18T11:38:38.453Z,88.35
2022-12-18T11:43:55.256Z,88.62
2022-12-18T11:49:05.865Z,88.97
2022-12-18T11:54:14.828Z,88.88
2022-12-18T11:59:26.777Z,88.63
2022-12-18T12:04:41.556Z,88.49
2022-12-18T12:09:58.805Z,88.38
2022-12-18T12:15:38.972Z,88.98
2022-12-18T12:20:53.994Z,88.96
2022-12-18T12:26:13.505Z,88.22
2022-12-18T12:31:44.537Z,88.00
2022-12-18T12:37:21.873Z,87.85
2022-12-18T12:42:59.386Z,87.95
2022-12-18T12:48:04.929Z,88.19
2022-12-18T12:53:16.096Z,88.28
2022-12-18T12:58:34.944Z,88.05
2022-12-18T13:04:04.874Z,88.06
2022-12-18T13:09:07.045Z,87.76
2022-12-18T13:14:25.267Z,87.97
2022-12-18T13:19:27.676Z,87.86
2022-12-18T13:24:32.269Z,88.10
2022-12-18T13:29:46.866Z,87.89
2022-12-18T13:34:49.604Z,88.05
2022-12-18T13:39:51.350Z,87.95
2022-12-18T13:44:53.124Z,87.89
2022-12-18T13:49:58.206Z,88.08
2022-12-18T13:55:03.839Z,88.20
2022-12-18T14:00:24.250Z,87.99
2022-12-18T14:05:32.189Z,87.88
2022-12-18T14:10:48.005Z,87.84
2022-12-18T14:15:52.350Z,88.08
2022-12-18T14:21:00.206Z,88.11
2022-12-18T14:26:06.171Z,87.97
2022-12-18T14:31:19.311Z,88.10
2022-12-18T14:36:24.568Z,88.06
2022-12-18T14:41:27.347Z,88.21
2022-12-18T14:46:36.690Z,88.52
2022-12-18T14:51:38.484Z,88.72
2022-12-18T14:56:47.117Z,89.06
2022-12-18T15:02:02.848Z,89.39
2022-12-18T15:07:05.756Z,89.09
2022-12-18T15:12:25.828Z,89.01
2022-12-18T15:17:28.202Z,88.90
2022-12-18T15:22:38.948Z,88.72
2022-12-18T15:27:47.644Z,88.72
2022-12-18T15:32:50.666Z,88.78
2022-12-18T15:37:53.276Z,89.02
2022-12-18T15:43:14.859Z,89.32
2022-12-18T15:48:23.786Z,89.65
2022-12-18T15:53:30.487Z,89.89
2022-12-18T15:58:32.279Z,90.03
2022-12-18T16:03:34.147Z,90.25
2022-12-18T16:08:36.120Z,90.44
2022-12-18T16:13:38.223Z,90.51
2022-12-18T16:18:40.814Z,90.38
2022-12-18T16:23:42.883Z,90.26
2022-12-18T16:28:48.372Z,90.19
2022-12-18T16:33:50.478Z,89.92
2022-12-18T16:38:52.272Z,90.19
2022-12-18T16:43:55.103Z,90.48
2022-12-18T16:49:00.900Z,90.20
2022-12-18T16:54:07.985Z,89.87
2022-12-18T16:59:13.352Z,89.61
2022-12-18T17:04:17.062Z,89.38
2022-12-18T17:09:26.141Z,89.09
2022-12-18T17:14:27.947Z,89.04
2022-12-18T17:19:29.898Z,89.16
2022-12-18T17:24:35.015Z,89.58
2022-12-18T17:29:41.149Z,89.68
2022-12-18T17:34:47.166Z,90.06
2022-12-18T17:39:49.014Z,90.39
2022-12-18T17:44:50.863Z,90.55
2022-12-18T17:49:52.640Z,90.26
2022-12-18T17:54:55.353Z,89.85
2022-12-18T17:59:57.189Z,89.82
2022-12-18T18:04:58.951Z,89.98
2022-12-18T18:10:00.730Z,89.88
2022-12-18T18:15:02.630Z,89.97
2022-12-18T18:20:06.192Z,90.20
2022-12-18T18:25:09.413Z,90.11
2022-12-18T18:30:12.714Z,90.25
2022-12-18T18:35:37.542Z,90.71
2022-12-18T18:40:36.239Z,91.20
2022-12-18T18:45:38.314Z,91.78
2022-12-18T18:50:44.006Z,91.75
2022-12-18T18:55:49.135Z,92.01
2022-12-18T19:01:05.518Z,92.30
2022-12-18T19:06:09.442Z,92.34
2022-12-18T19:11:36.108Z,92.66
2022-12-18T19:16:39.465Z,92.74
2022-12-18T19:21:41.627Z,92.79
2022-12-18T19:26:43.814Z,92.77
2022-12-18T19:31:45.791Z,92.78
2022-12-18T19:36:48.633Z,92.58
2022-12-18T19:41:51.896Z,92.32
2022-12-18T19:46:53.789Z,91.91
2022-12-18T19:51:55.653Z,91.32
2022-12-18T19:56:57.459Z,91.37
2022-12-18T20:01:59.377Z,91.61
2022-12-18T20:07:01.727Z,91.90
2022-12-18T20:12:04.264Z,91.86
2022-12-18T20:17:06.160Z,92.01
2022-12-18T20:22:08.476Z,92.26
2022-12-18T20:27:15.200Z,92.73
2022-12-18T20:32:19.215Z,92.53
2022-12-18T20:37:21.151Z,93.03
2022-12-18T20:42:23.144Z,92.99
2022-12-18T20:47:26.339Z,93.07
2022-12-18T20:52:28.567Z,93.10
2022-12-18T20:57:30.346Z,92.98
2022-12-18T21:02:32.489Z,93.19
2022-12-18T21:07:34.424Z,93.47
2022-12-18T21:13:00.244Z,93.33
2022-12-18T21:18:01.003Z,93.24
2022-12-18T21:23:13.210Z,93.26
2022-12-18T21:28:17.937Z,93.11
2022-12-18T21:33:19.735Z,92.96
2022-12-18T21:38:21.584Z,93.31
2022-12-18T21:43:42.057Z,93.73
2022-12-18T21:48:44.163Z,93.87
2022-12-18T21:53:45.877Z,93.99
2022-12-18T21:58:57.097Z,94.42
2022-12-18T22:03:59.448Z,94.22
2022-12-18T22:09:01.246Z,93.91
2022-12-18T22:14:06.575Z,93.64
2022-12-18T22:19:11.446Z,93.79
2022-12-18T22:24:16.462Z,93.62
2022-12-18T22:29:41.928Z,93.92
2022-12-18T22:34:43.821Z,93.83
2022-12-18T22:39:45.760Z,93.77
2022-12-18T22:44:48.027Z,93.64
2022-12-18T22:49:49.819Z,93.49
2022-12-18T22:54:53.750Z,93.48
2022-12-18T22:59:55.925Z,93.48
2022-12-18T23:04:57.718Z,93.72
2022-12-18T23:10:01.199Z,93.94
2022-12-18T23:15:05.107Z,93.72
2022-12-18T23:20:07.236Z,93.87
2022-12-18T23:25:09.527Z,93.97
2022-12-18T23:30:12.192Z,93.76
2022-12-18T23:35:15.787Z,93.83
2022-12-18T23:40:18.153Z,93.71
2022-12-18T23:45:20.204Z,93.29
2022-12-18T23:50:26.728Z,92.88
2022-12-18T23:55:31.771Z,92.53
